sensor_id;sensor_type;location;lat;lon;timestamp;P1;durP1;ratioP1;P2;durP2;ratioP2
54865;SDS011;40754;52.094;4.328;2022-10-31T00:02:05;3.75;;;2.03;;
54865;SDS011;40754;52.094;4.328;2022-10-31T00:04:31;5.32;;;1.80;;
54865;SDS011;40754;52.094;4.328;2022-10-31T00:06:56;2.95;;;1.70;;
54865;SDS011;40754;52.094;4.328;2022-10-31T00:09:22;4.75;;;1.95;;
54865;SDS011;40754;52.094;4.328;2022-10-31T00:11:47;4.22;;;2.03;;
54865;SDS011;40754;52.094;4.328;2022-10-31T00:14:13;4.47;;;1.90;;
54865;SDS011;40754;52.094;4.328;2022-10-31T00:16:38;2.10;;;1.80;;
54865;SDS011;40754;52.094;4.328;2022-10-31T00:19:05;4.70;;;2.05;;
54865;SDS011;40754;52.094;4.328;2022-10-31T00:21:32;4.05;;;2.10;;
54865;SDS011;40754;52.094;4.328;2022-10-31T00:23:58;8.98;;;2.20;;
54865;SDS011;40754;52.094;4.328;2022-10-31T00:26:24;3.67;;;2.30;;
54865;SDS011;40754;52.094;4.328;2022-10-31T00:28:51;4.03;;;2.00;;
54865;SDS011;40754;52.094;4.328;2022-10-31T00:31:16;3.22;;;2.30;;
54865;SDS011;40754;52.094;4.328;2022-10-31T00:33:45;6.00;;;2.58;;
54865;SDS011;40754;52.094;4.328;2022-10-31T00:36:12;4.82;;;2.50;;
54865;SDS011;40754;52.094;4.328;2022-10-31T00:38:39;5.88;;;2.30;;
54865;SDS011;40754;52.094;4.328;2022-10-31T00:41:05;6.18;;;2.13;;
54865;SDS011;40754;52.094;4.328;2022-10-31T00:43:30;3.17;;;2.47;;
54865;SDS011;40754;52.094;4.328;2022-10-31T00:45:56;4.53;;;2.15;;
54865;SDS011;40754;52.094;4.328;2022-10-31T00:48:21;3.25;;;2.47;;
54865;SDS011;40754;52.094;4.328;2022-10-31T00:50:47;7.10;;;2.28;;
54865;SDS011;40754;52.094;4.328;2022-10-31T00:53:13;5.30;;;2.65;;
54865;SDS011;40754;52.094;4.328;2022-10-31T00:55:38;3.72;;;2.63;;
54865;SDS011;40754;52.094;4.328;2022-10-31T00:58:04;3.20;;;2.33;;
54865;SDS011;40754;52.094;4.328;2022-10-31T01:00:29;5.93;;;2.60;;
54865;SDS011;40754;52.094;4.328;2022-10-31T01:02:55;4.28;;;2.60;;
54865;SDS011;40754;52.094;4.328;2022-10-31T01:05:21;6.80;;;2.80;;
54865;SDS011;40754;52.094;4.328;2022-10-31T01:07:46;3.88;;;2.35;;
54865;SDS011;40754;52.094;4.328;2022-10-31T01:10:12;3.95;;;2.40;;
54865;SDS011;40754;52.094;4.328;2022-10-31T01:12:42;6.18;;;2.80;;
54865;SDS011;40754;52.094;4.328;2022-10-31T01:15:10;4.43;;;2.75;;
54865;SDS011;40754;52.094;4.328;2022-10-31T01:17:36;4.68;;;2.67;;
54865;SDS011;40754;52.094;4.328;2022-10-31T01:20:02;7.60;;;3.17;;
54865;SDS011;40754;52.094;4.328;2022-10-31T01:22:28;8.65;;;3.22;;
54865;SDS011;40754;52.094;4.328;2022-10-31T01:24:54;7.18;;;2.80;;
54865;SDS011;40754;52.094;4.328;2022-10-31T01:27:19;5.70;;;3.00;;
54865;SDS011;40754;52.094;4.328;2022-10-31T01:29:45;4.40;;;2.80;;
54865;SDS011;40754;52.094;4.328;2022-10-31T01:32:10;5.15;;;2.80;;
54865;SDS011;40754;52.094;4.328;2022-10-31T01:34:36;6.50;;;3.10;;
54865;SDS011;40754;52.094;4.328;2022-10-31T01:37:01;6.45;;;3.40;;
54865;SDS011;40754;52.094;4.328;2022-10-31T01:39:27;4.93;;;3.30;;
54865;SDS011;40754;52.094;4.328;2022-10-31T01:41:53;6.82;;;3.10;;
54865;SDS011;40754;52.094;4.328;2022-10-31T01:46:55;5.25;;;3.30;;
54865;SDS011;40754;52.094;4.328;2022-10-31T01:49:31;6.97;;;3.80;;
54865;SDS011;40754;52.094;4.328;2022-10-31T01:57:27;4.30;;;3.30;;
54865;SDS011;40754;52.094;4.328;2022-10-31T01:59:55;5.60;;;3.92;;
54865;SDS011;40754;52.094;4.328;2022-10-31T02:02:23;5.45;;;3.70;;
54865;SDS011;40754;52.094;4.328;2022-10-31T02:04:49;8.85;;;4.22;;
54865;SDS011;40754;52.094;4.328;2022-10-31T02:07:16;5.57;;;4.10;;
54865;SDS011;40754;52.094;4.328;2022-10-31T02:09:46;5.72;;;4.38;;
54865;SDS011;40754;52.094;4.328;2022-10-31T02:12:12;7.53;;;4.18;;
54865;SDS011;40754;52.094;4.328;2022-10-31T02:14:38;8.02;;;4.10;;
54865;SDS011;40754;52.094;4.328;2022-10-31T02:17:05;7.60;;;4.22;;
54865;SDS011;40754;52.094;4.328;2022-10-31T02:19:33;6.15;;;4.32;;
54865;SDS011;40754;52.094;4.328;2022-10-31T02:24:42;8.15;;;4.95;;
54865;SDS011;40754;52.094;4.328;2022-10-31T02:30:28;5.90;;;4.20;;
54865;SDS011;40754;52.094;4.328;2022-10-31T02:33:08;7.78;;;4.57;;
54865;SDS011;40754;52.094;4.328;2022-10-31T02:35:49;9.45;;;4.65;;
54865;SDS011;40754;52.094;4.328;2022-10-31T02:38:36;8.05;;;4.47;;
54865;SDS011;40754;52.094;4.328;2022-10-31T02:48:47;8.80;;;4.75;;
54865;SDS011;40754;52.094;4.328;2022-10-31T02:51:13;8.52;;;4.53;;
54865;SDS011;40754;52.094;4.328;2022-10-31T02:53:40;5.88;;;4.22;;
54865;SDS011;40754;52.094;4.328;2022-10-31T02:56:06;5.82;;;3.90;;
54865;SDS011;40754;52.094;4.328;2022-10-31T02:58:39;7.50;;;4.65;;
54865;SDS011;40754;52.094;4.328;2022-10-31T03:01:20;8.55;;;4.63;;
54865;SDS011;40754;52.094;4.328;2022-10-31T03:12:38;7.93;;;5.05;;
54865;SDS011;40754;52.094;4.328;2022-10-31T03:15:14;12.20;;;4.97;;
54865;SDS011;40754;52.094;4.328;2022-10-31T03:18:34;10.93;;;4.97;;
54865;SDS011;40754;52.094;4.328;2022-10-31T03:20:50;7.10;;;5.20;;
54865;SDS011;40754;52.094;4.328;2022-10-31T03:23:19;8.10;;;5.72;;
54865;SDS011;40754;52.094;4.328;2022-10-31T03:25:47;10.15;;;5.13;;
54865;SDS011;40754;52.094;4.328;2022-10-31T03:28:13;12.30;;;5.78;;
54865;SDS011;40754;52.094;4.328;2022-10-31T03:30:41;9.07;;;5.38;;
54865;SDS011;40754;52.094;4.328;2022-10-31T03:33:09;6.35;;;4.43;;
54865;SDS011;40754;52.094;4.328;2022-10-31T03:35:36;7.70;;;6.10;;
54865;SDS011;40754;52.094;4.328;2022-10-31T03:38:03;13.27;;;6.43;;
54865;SDS011;40754;52.094;4.328;2022-10-31T03:40:28;9.40;;;6.00;;
54865;SDS011;40754;52.094;4.328;2022-10-31T03:42:56;7.47;;;5.78;;
54865;SDS011;40754;52.094;4.328;2022-10-31T03:45:24;8.75;;;5.22;;
54865;SDS011;40754;52.094;4.328;2022-10-31T03:47:52;11.25;;;5.18;;
54865;SDS011;40754;52.094;4.328;2022-10-31T03:50:18;10.65;;;6.45;;
54865;SDS011;40754;52.094;4.328;2022-10-31T03:57:45;10.65;;;6.65;;
54865;SDS011;40754;52.094;4.328;2022-10-31T04:00:18;13.85;;;6.50;;
54865;SDS011;40754;52.094;4.328;2022-10-31T04:02:45;8.85;;;6.68;;
54865;SDS011;40754;52.094;4.328;2022-10-31T04:05:15;10.00;;;6.75;;
54865;SDS011;40754;52.094;4.328;2022-10-31T04:07:43;10.30;;;6.38;;
54865;SDS011;40754;52.094;4.328;2022-10-31T04:10:11;10.80;;;7.35;;
54865;SDS011;40754;52.094;4.328;2022-10-31T04:12:38;9.65;;;6.78;;
54865;SDS011;40754;52.094;4.328;2022-10-31T04:15:05;8.80;;;6.40;;
54865;SDS011;40754;52.094;4.328;2022-10-31T04:17:32;9.13;;;6.97;;
54865;SDS011;40754;52.094;4.328;2022-10-31T04:20:01;9.95;;;6.43;;
54865;SDS011;40754;52.094;4.328;2022-10-31T04:22:26;10.05;;;6.93;;
54865;SDS011;40754;52.094;4.328;2022-10-31T04:24:52;10.93;;;6.50;;
54865;SDS011;40754;52.094;4.328;2022-10-31T04:27:17;14.18;;;7.53;;
54865;SDS011;40754;52.094;4.328;2022-10-31T04:29:43;11.45;;;7.75;;
54865;SDS011;40754;52.094;4.328;2022-10-31T04:32:08;11.50;;;7.82;;
54865;SDS011;40754;52.094;4.328;2022-10-31T04:34:34;11.77;;;7.97;;
54865;SDS011;40754;52.094;4.328;2022-10-31T04:36:59;13.85;;;8.50;;
54865;SDS011;40754;52.094;4.328;2022-10-31T04:39:25;19.75;;;11.27;;
54865;SDS011;40754;52.094;4.328;2022-10-31T04:41:50;24.55;;;12.52;;
54865;SDS011;40754;52.094;4.328;2022-10-31T04:44:16;33.97;;;18.80;;
54865;SDS011;40754;52.094;4.328;2022-10-31T04:46:41;29.08;;;16.67;;
54865;SDS011;40754;52.094;4.328;2022-10-31T04:49:10;37.15;;;18.48;;
54865;SDS011;40754;52.094;4.328;2022-10-31T04:51:35;34.45;;;17.83;;
54865;SDS011;40754;52.094;4.328;2022-10-31T04:54:00;21.48;;;11.77;;
54865;SDS011;40754;52.094;4.328;2022-10-31T04:56:26;18.23;;;11.50;;
54865;SDS011;40754;52.094;4.328;2022-10-31T04:58:54;19.45;;;11.73;;
54865;SDS011;40754;52.094;4.328;2022-10-31T05:01:19;17.27;;;11.70;;
54865;SDS011;40754;52.094;4.328;2022-10-31T05:03:45;18.27;;;11.18;;
54865;SDS011;40754;52.094;4.328;2022-10-31T05:06:10;14.85;;;10.00;;
54865;SDS011;40754;52.094;4.328;2022-10-31T05:08:36;21.38;;;11.20;;
54865;SDS011;40754;52.094;4.328;2022-10-31T05:11:02;17.73;;;10.50;;
54865;SDS011;40754;52.094;4.328;2022-10-31T05:13:28;19.40;;;11.00;;
54865;SDS011;40754;52.094;4.328;2022-10-31T05:15:54;15.77;;;10.90;;
54865;SDS011;40754;52.094;4.328;2022-10-31T05:18:19;17.15;;;11.70;;
54865;SDS011;40754;52.094;4.328;2022-10-31T05:20:45;14.75;;;10.77;;
54865;SDS011;40754;52.094;4.328;2022-10-31T05:23:10;19.67;;;11.15;;
54865;SDS011;40754;52.094;4.328;2022-10-31T05:25:36;20.98;;;11.88;;
54865;SDS011;40754;52.094;4.328;2022-10-31T05:28:02;17.48;;;11.93;;
54865;SDS011;40754;52.094;4.328;2022-10-31T05:30:29;16.30;;;11.63;;
54865;SDS011;40754;52.094;4.328;2022-10-31T05:32:58;19.98;;;11.63;;
54865;SDS011;40754;52.094;4.328;2022-10-31T05:35:25;19.63;;;12.88;;
54865;SDS011;40754;52.094;4.328;2022-10-31T05:37:53;21.80;;;13.82;;
54865;SDS011;40754;52.094;4.328;2022-10-31T05:40:19;19.58;;;13.50;;
54865;SDS011;40754;52.094;4.328;2022-10-31T05:42:45;19.23;;;12.93;;
54865;SDS011;40754;52.094;4.328;2022-10-31T05:45:13;21.50;;;12.98;;
54865;SDS011;40754;52.094;4.328;2022-10-31T05:47:39;20.80;;;13.63;;
54865;SDS011;40754;52.094;4.328;2022-10-31T05:50:05;23.33;;;14.05;;
54865;SDS011;40754;52.094;4.328;2022-10-31T05:52:31;22.15;;;13.88;;
54865;SDS011;40754;52.094;4.328;2022-10-31T05:54:57;20.90;;;13.27;;
54865;SDS011;40754;52.094;4.328;2022-10-31T05:57:25;23.23;;;14.15;;
54865;SDS011;40754;52.094;4.328;2022-10-31T05:59:51;28.98;;;14.65;;
54865;SDS011;40754;52.094;4.328;2022-10-31T06:02:18;21.77;;;14.25;;
54865;SDS011;40754;52.094;4.328;2022-10-31T06:04:44;21.85;;;13.52;;
54865;SDS011;40754;52.094;4.328;2022-10-31T06:07:10;20.75;;;14.00;;
54865;SDS011;40754;52.094;4.328;2022-10-31T06:09:35;24.25;;;14.30;;
54865;SDS011;40754;52.094;4.328;2022-10-31T06:12:01;20.45;;;14.50;;
54865;SDS011;40754;52.094;4.328;2022-10-31T06:14:26;20.98;;;14.13;;
54865;SDS011;40754;52.094;4.328;2022-10-31T06:16:53;22.92;;;15.32;;
54865;SDS011;40754;52.094;4.328;2022-10-31T06:19:19;23.92;;;15.35;;
54865;SDS011;40754;52.094;4.328;2022-10-31T06:21:45;28.35;;;15.98;;
54865;SDS011;40754;52.094;4.328;2022-10-31T06:24:11;24.90;;;14.90;;
54865;SDS011;40754;52.094;4.328;2022-10-31T06:26:36;24.58;;;15.48;;
54865;SDS011;40754;52.094;4.328;2022-10-31T06:29:04;24.27;;;16.65;;
54865;SDS011;40754;52.094;4.328;2022-10-31T06:31:30;28.30;;;16.20;;
54865;SDS011;40754;52.094;4.328;2022-10-31T06:33:55;29.98;;;15.70;;
54865;SDS011;40754;52.094;4.328;2022-10-31T06:36:21;28.23;;;15.82;;
54865;SDS011;40754;52.094;4.328;2022-10-31T06:38:46;28.95;;;16.77;;
54865;SDS011;40754;52.094;4.328;2022-10-31T06:41:12;27.10;;;16.65;;
54865;SDS011;40754;52.094;4.328;2022-10-31T06:43:38;29.80;;;17.33;;
54865;SDS011;40754;52.094;4.328;2022-10-31T06:46:03;36.75;;;17.58;;
54865;SDS011;40754;52.094;4.328;2022-10-31T06:48:29;29.67;;;16.65;;
54865;SDS011;40754;52.094;4.328;2022-10-31T06:50:58;28.63;;;18.00;;
54865;SDS011;40754;52.094;4.328;2022-10-31T06:53:26;31.20;;;17.27;;
54865;SDS011;40754;52.094;4.328;2022-10-31T06:55:54;32.28;;;17.83;;
54865;SDS011;40754;52.094;4.328;2022-10-31T06:58:20;24.85;;;16.27;;
54865;SDS011;40754;52.094;4.328;2022-10-31T07:00:46;32.85;;;17.48;;
54865;SDS011;40754;52.094;4.328;2022-10-31T07:03:12;31.80;;;16.52;;
54865;SDS011;40754;52.094;4.328;2022-10-31T07:05:38;31.30;;;17.65;;
54865;SDS011;40754;52.094;4.328;2022-10-31T07:08:05;25.52;;;16.85;;
54865;SDS011;40754;52.094;4.328;2022-10-31T07:10:33;28.00;;;17.85;;
54865;SDS011;40754;52.094;4.328;2022-10-31T07:13:04;32.90;;;17.90;;
54865;SDS011;40754;52.094;4.328;2022-10-31T07:15:33;29.38;;;18.25;;
54865;SDS011;40754;52.094;4.328;2022-10-31T07:18:00;27.73;;;17.98;;
54865;SDS011;40754;52.094;4.328;2022-10-31T07:20:29;29.67;;;17.67;;
54865;SDS011;40754;52.094;4.328;2022-10-31T07:22:55;26.80;;;18.27;;
54865;SDS011;40754;52.094;4.328;2022-10-31T07:25:21;28.33;;;17.63;;
54865;SDS011;40754;52.094;4.328;2022-10-31T07:27:47;32.08;;;19.65;;
54865;SDS011;40754;52.094;4.328;2022-10-31T07:30:13;32.08;;;18.23;;
54865;SDS011;40754;52.094;4.328;2022-10-31T07:32:43;30.40;;;18.25;;
54865;SDS011;40754;52.094;4.328;2022-10-31T07:35:10;35.08;;;19.83;;
54865;SDS011;40754;52.094;4.328;2022-10-31T07:37:38;30.98;;;18.85;;
54865;SDS011;40754;52.094;4.328;2022-10-31T07:40:04;29.05;;;18.30;;
54865;SDS011;40754;52.094;4.328;2022-10-31T07:42:41;30.42;;;18.73;;
54865;SDS011;40754;52.094;4.328;2022-10-31T07:45:08;33.72;;;18.88;;
54865;SDS011;40754;52.094;4.328;2022-10-31T07:47:39;25.23;;;18.65;;
54865;SDS011;40754;52.094;4.328;2022-10-31T07:50:05;28.75;;;18.73;;
54865;SDS011;40754;52.094;4.328;2022-10-31T07:52:32;35.22;;;20.02;;
54865;SDS011;40754;52.094;4.328;2022-10-31T07:54:57;32.65;;;19.42;;
54865;SDS011;40754;52.094;4.328;2022-10-31T07:57:23;27.90;;;19.40;;
54865;SDS011;40754;52.094;4.328;2022-10-31T07:59:51;32.25;;;20.30;;
54865;SDS011;40754;52.094;4.328;2022-10-31T08:02:17;36.25;;;20.58;;
54865;SDS011;40754;52.094;4.328;2022-10-31T08:04:43;30.88;;;20.55;;
54865;SDS011;40754;52.094;4.328;2022-10-31T08:07:08;30.60;;;21.52;;
54865;SDS011;40754;52.094;4.328;2022-10-31T08:09:34;36.33;;;21.05;;
54865;SDS011;40754;52.094;4.328;2022-10-31T08:11:59;35.20;;;19.73;;
54865;SDS011;40754;52.094;4.328;2022-10-31T08:14:26;31.25;;;20.35;;
54865;SDS011;40754;52.094;4.328;2022-10-31T08:16:54;39.15;;;20.85;;
54865;SDS011;40754;52.094;4.328;2022-10-31T08:19:19;32.38;;;20.33;;
54865;SDS011;40754;52.094;4.328;2022-10-31T08:21:45;26.10;;;19.35;;
54865;SDS011;40754;52.094;4.328;2022-10-31T08:24:10;33.13;;;20.30;;
54865;SDS011;40754;52.094;4.328;2022-10-31T08:26:36;36.72;;;20.92;;
54865;SDS011;40754;52.094;4.328;2022-10-31T08:29:02;34.60;;;20.02;;
54865;SDS011;40754;52.094;4.328;2022-10-31T08:31:28;34.28;;;19.85;;
54865;SDS011;40754;52.094;4.328;2022-10-31T08:33:54;32.20;;;20.27;;
54865;SDS011;40754;52.094;4.328;2022-10-31T08:36:20;29.83;;;19.13;;
54865;SDS011;40754;52.094;4.328;2022-10-31T08:38:46;31.38;;;19.17;;
54865;SDS011;40754;52.094;4.328;2022-10-31T08:41:12;28.17;;;18.80;;
54865;SDS011;40754;52.094;4.328;2022-10-31T08:43:38;28.95;;;18.98;;
54865;SDS011;40754;52.094;4.328;2022-10-31T08:46:04;28.15;;;18.98;;
54865;SDS011;40754;52.094;4.328;2022-10-31T08:48:29;31.13;;;18.35;;
54865;SDS011;40754;52.094;4.328;2022-10-31T08:50:57;31.75;;;18.75;;
54865;SDS011;40754;52.094;4.328;2022-10-31T08:53:23;28.88;;;18.45;;
54865;SDS011;40754;52.094;4.328;2022-10-31T08:55:49;32.10;;;18.88;;
54865;SDS011;40754;52.094;4.328;2022-10-31T08:58:17;28.77;;;19.02;;
54865;SDS011;40754;52.094;4.328;2022-10-31T09:00:44;27.90;;;17.77;;
54865;SDS011;40754;52.094;4.328;2022-10-31T09:03:11;31.58;;;19.35;;
54865;SDS011;40754;52.094;4.328;2022-10-31T09:05:41;27.08;;;18.02;;
54865;SDS011;40754;52.094;4.328;2022-10-31T09:08:10;33.30;;;18.60;;
54865;SDS011;40754;52.094;4.328;2022-10-31T09:10:36;27.30;;;17.83;;
54865;SDS011;40754;52.094;4.328;2022-10-31T09:13:03;28.95;;;17.15;;
54865;SDS011;40754;52.094;4.328;2022-10-31T09:15:34;33.72;;;17.45;;
54865;SDS011;40754;52.094;4.328;2022-10-31T09:18:01;29.42;;;17.27;;
54865;SDS011;40754;52.094;4.328;2022-10-31T09:20:28;31.83;;;16.77;;
54865;SDS011;40754;52.094;4.328;2022-10-31T09:22:57;26.25;;;16.10;;
54865;SDS011;40754;52.094;4.328;2022-10-31T09:25:24;25.40;;;14.43;;
54865;SDS011;40754;52.094;4.328;2022-10-31T09:27:50;22.60;;;14.48;;
54865;SDS011;40754;52.094;4.328;2022-10-31T09:30:15;23.85;;;16.10;;
54865;SDS011;40754;52.094;4.328;2022-10-31T09:32:41;34.65;;;15.88;;
54865;SDS011;40754;52.094;4.328;2022-10-31T09:35:06;24.98;;;14.18;;
54865;SDS011;40754;52.094;4.328;2022-10-31T09:37:32;24.05;;;15.45;;
54865;SDS011;40754;52.094;4.328;2022-10-31T09:39:58;27.63;;;14.95;;
54865;SDS011;40754;52.094;4.328;2022-10-31T09:42:31;26.63;;;14.85;;
54865;SDS011;40754;52.094;4.328;2022-10-31T09:50:48;23.88;;;15.05;;
54865;SDS011;40754;52.094;4.328;2022-10-31T09:55:45;25.25;;;15.10;;
54865;SDS011;40754;52.094;4.328;2022-10-31T09:58:20;23.58;;;15.40;;
54865;SDS011;40754;52.094;4.328;2022-10-31T10:00:48;20.85;;;14.50;;
54865;SDS011;40754;52.094;4.328;2022-10-31T10:08:44;26.27;;;13.63;;
54865;SDS011;40754;52.094;4.328;2022-10-31T10:19:56;23.95;;;12.23;;
54865;SDS011;40754;52.094;4.328;2022-10-31T10:25:22;21.55;;;12.07;;
54865;SDS011;40754;52.094;4.328;2022-10-31T10:31:23;22.30;;;12.50;;
54865;SDS011;40754;52.094;4.328;2022-10-31T10:33:33;22.10;;;13.00;;
54865;SDS011;40754;52.094;4.328;2022-10-31T10:36:03;22.27;;;12.55;;
54865;SDS011;40754;52.094;4.328;2022-10-31T10:41:02;22.55;;;13.68;;
54865;SDS011;40754;52.094;4.328;2022-10-31T10:43:35;19.98;;;12.35;;
54865;SDS011;40754;52.094;4.328;2022-10-31T10:54:37;20.45;;;13.13;;
54865;SDS011;40754;52.094;4.328;2022-10-31T10:57:11;25.23;;;12.85;;
54865;SDS011;40754;52.094;4.328;2022-10-31T10:59:59;21.88;;;13.32;;
54865;SDS011;40754;52.094;4.328;2022-10-31T11:02:27;20.55;;;13.05;;
54865;SDS011;40754;52.094;4.328;2022-10-31T11:04:57;21.23;;;13.75;;
54865;SDS011;40754;52.094;4.328;2022-10-31T11:07:36;22.20;;;14.02;;
54865;SDS011;40754;52.094;4.328;2022-10-31T11:10:04;22.83;;;13.70;;
54865;SDS011;40754;52.094;4.328;2022-10-31T11:12:38;20.02;;;13.68;;
54865;SDS011;40754;52.094;4.328;2022-10-31T11:15:15;24.52;;;13.70;;
54865;SDS011;40754;52.094;4.328;2022-10-31T11:17:48;24.48;;;14.30;;
54865;SDS011;40754;52.094;4.328;2022-10-31T11:22:44;18.15;;;12.30;;
54865;SDS011;40754;52.094;4.328;2022-10-31T11:28:04;20.73;;;12.73;;
54865;SDS011;40754;52.094;4.328;2022-10-31T11:30:36;16.20;;;11.85;;
54865;SDS011;40754;52.094;4.328;2022-10-31T11:33:19;19.10;;;12.00;;
54865;SDS011;40754;52.094;4.328;2022-10-31T11:36:01;22.88;;;12.43;;
54865;SDS011;40754;52.094;4.328;2022-10-31T11:38:39;21.02;;;11.85;;
54865;SDS011;40754;52.094;4.328;2022-10-31T11:41:09;23.77;;;12.45;;
54865;SDS011;40754;52.094;4.328;2022-10-31T11:43:37;23.30;;;12.05;;
54865;SDS011;40754;52.094;4.328;2022-10-31T11:46:15;19.42;;;12.70;;
54865;SDS011;40754;52.094;4.328;2022-10-31T11:48:49;20.15;;;13.05;;
54865;SDS011;40754;52.094;4.328;2022-10-31T11:51:25;24.35;;;12.88;;
54865;SDS011;40754;52.094;4.328;2022-10-31T11:53:56;22.25;;;15.10;;
54865;SDS011;40754;52.094;4.328;2022-10-31T11:56:23;22.92;;;15.07;;
54865;SDS011;40754;52.094;4.328;2022-10-31T11:58:56;28.10;;;16.63;;
54865;SDS011;40754;52.094;4.328;2022-10-31T12:01:24;27.65;;;16.63;;
54865;SDS011;40754;52.094;4.328;2022-10-31T12:04:00;27.95;;;16.75;;
54865;SDS011;40754;52.094;4.328;2022-10-31T12:09:00;31.10;;;18.77;;
54865;SDS011;40754;52.094;4.328;2022-10-31T12:20:36;42.08;;;21.50;;
54865;SDS011;40754;52.094;4.328;2022-10-31T12:25:32;39.05;;;22.08;;
54865;SDS011;40754;52.094;4.328;2022-10-31T12:28:12;38.35;;;20.70;;
54865;SDS011;40754;52.094;4.328;2022-10-31T12:36:06;30.70;;;19.17;;
54865;SDS011;40754;52.094;4.328;2022-10-31T12:41:52;28.85;;;18.35;;
54865;SDS011;40754;52.094;4.328;2022-10-31T12:44:34;34.80;;;19.77;;
54865;SDS011;40754;52.094;4.328;2022-10-31T12:55:11;41.22;;;21.15;;
54865;SDS011;40754;52.094;4.328;2022-10-31T12:58:02;34.80;;;19.90;;
54865;SDS011;40754;52.094;4.328;2022-10-31T13:00:35;36.15;;;20.83;;
54865;SDS011;40754;52.094;4.328;2022-10-31T13:05:40;35.47;;;20.83;;
54865;SDS011;40754;52.094;4.328;2022-10-31T13:08:21;30.50;;;19.52;;
54865;SDS011;40754;52.094;4.328;2022-10-31T13:11:23;39.50;;;19.95;;
54865;SDS011;40754;52.094;4.328;2022-10-31T13:13:51;35.20;;;21.60;;
54865;SDS011;40754;52.094;4.328;2022-10-31T13:16:34;34.90;;;21.08;;
54865;SDS011;40754;52.094;4.328;2022-10-31T13:19:19;32.70;;;20.65;;
54865;SDS011;40754;52.094;4.328;2022-10-31T13:24:31;34.05;;;20.75;;
54865;SDS011;40754;52.094;4.328;2022-10-31T13:27:01;46.03;;;21.17;;
54865;SDS011;40754;52.094;4.328;2022-10-31T13:29:30;37.42;;;20.35;;
54865;SDS011;40754;52.094;4.328;2022-10-31T13:31:59;38.15;;;21.90;;
54865;SDS011;40754;52.094;4.328;2022-10-31T13:34:36;34.95;;;21.70;;
54865;SDS011;40754;52.094;4.328;2022-10-31T13:42:52;37.90;;;20.45;;
54865;SDS011;40754;52.094;4.328;2022-10-31T13:45:28;36.55;;;21.88;;
54865;SDS011;40754;52.094;4.328;2022-10-31T13:48:00;37.42;;;21.88;;
54865;SDS011;40754;52.094;4.328;2022-10-31T13:50:54;146.75;;;35.30;;
54865;SDS011;40754;52.094;4.328;2022-10-31T13:53:34;36.97;;;21.15;;
54865;SDS011;40754;52.094;4.328;2022-10-31T13:58:33;41.20;;;23.05;;
54865;SDS011;40754;52.094;4.328;2022-10-31T14:03:27;38.00;;;22.20;;
54865;SDS011;40754;52.094;4.328;2022-10-31T14:05:53;38.63;;;22.08;;
54865;SDS011;40754;52.094;4.328;2022-10-31T14:08:21;38.70;;;23.38;;
54865;SDS011;40754;52.094;4.328;2022-10-31T14:10:49;43.45;;;23.77;;
54865;SDS011;40754;52.094;4.328;2022-10-31T14:13:35;38.83;;;22.60;;
54865;SDS011;40754;52.094;4.328;2022-10-31T14:16:03;43.53;;;23.00;;
54865;SDS011;40754;52.094;4.328;2022-10-31T14:18:34;43.25;;;27.08;;
54865;SDS011;40754;52.094;4.328;2022-10-31T14:21:48;43.30;;;23.50;;
54865;SDS011;40754;52.094;4.328;2022-10-31T14:23:48;50.85;;;25.48;;
54865;SDS011;40754;52.094;4.328;2022-10-31T14:28:54;39.20;;;24.27;;
54865;SDS011;40754;52.094;4.328;2022-10-31T14:31:41;43.92;;;25.42;;
54865;SDS011;40754;52.094;4.328;2022-10-31T14:51:25;44.92;;;26.85;;
54865;SDS011;40754;52.094;4.328;2022-10-31T14:54:05;53.90;;;26.52;;
54865;SDS011;40754;52.094;4.328;2022-10-31T14:56:35;49.28;;;27.30;;
54865;SDS011;40754;52.094;4.328;2022-10-31T14:59:12;48.92;;;28.00;;
54865;SDS011;40754;52.094;4.328;2022-10-31T15:01:39;45.92;;;26.15;;
54865;SDS011;40754;52.094;4.328;2022-10-31T15:04:22;52.72;;;28.35;;
54865;SDS011;40754;52.094;4.328;2022-10-31T15:09:37;46.35;;;28.05;;
54865;SDS011;40754;52.094;4.328;2022-10-31T15:12:22;51.97;;;29.25;;
54865;SDS011;40754;52.094;4.328;2022-10-31T15:14:49;53.70;;;30.00;;
54865;SDS011;40754;52.094;4.328;2022-10-31T15:17:15;50.63;;;29.92;;
54865;SDS011;40754;52.094;4.328;2022-10-31T15:19:41;55.38;;;30.25;;
54865;SDS011;40754;52.094;4.328;2022-10-31T15:22:09;45.75;;;27.85;;
54865;SDS011;40754;52.094;4.328;2022-10-31T15:24:38;47.83;;;29.25;;
54865;SDS011;40754;52.094;4.328;2022-10-31T15:27:06;53.83;;;30.65;;
54865;SDS011;40754;52.094;4.328;2022-10-31T15:29:49;52.83;;;29.42;;
54865;SDS011;40754;52.094;4.328;2022-10-31T15:32:24;55.13;;;29.10;;
54865;SDS011;40754;52.094;4.328;2022-10-31T15:34:54;52.58;;;28.60;;
54865;SDS011;40754;52.094;4.328;2022-10-31T15:37:21;53.45;;;30.23;;
54865;SDS011;40754;52.094;4.328;2022-10-31T15:39:49;55.58;;;29.48;;
54865;SDS011;40754;52.094;4.328;2022-10-31T15:45:18;53.55;;;29.13;;
54865;SDS011;40754;52.094;4.328;2022-10-31T15:47:50;54.33;;;29.92;;
54865;SDS011;40754;52.094;4.328;2022-10-31T15:50:19;56.35;;;30.13;;
54865;SDS011;40754;52.094;4.328;2022-10-31T15:52:47;51.95;;;29.25;;
54865;SDS011;40754;52.094;4.328;2022-10-31T15:55:15;50.33;;;28.20;;
54865;SDS011;40754;52.094;4.328;2022-10-31T15:57:48;52.35;;;29.90;;
54865;SDS011;40754;52.094;4.328;2022-10-31T16:00:25;52.00;;;29.40;;
54865;SDS011;40754;52.094;4.328;2022-10-31T16:10:59;53.22;;;28.30;;
54865;SDS011;40754;52.094;4.328;2022-10-31T16:13:32;52.55;;;29.92;;
54865;SDS011;40754;52.094;4.328;2022-10-31T16:16:02;57.42;;;28.67;;
54865;SDS011;40754;52.094;4.328;2022-10-31T16:18:53;57.95;;;29.20;;
54865;SDS011;40754;52.094;4.328;2022-10-31T16:21:27;51.75;;;28.80;;
54865;SDS011;40754;52.094;4.328;2022-10-31T16:23:57;51.67;;;27.27;;
54865;SDS011;40754;52.094;4.328;2022-10-31T16:26:28;55.37;;;29.30;;
54865;SDS011;40754;52.094;4.328;2022-10-31T16:28:54;61.75;;;29.58;;
54865;SDS011;40754;52.094;4.328;2022-10-31T16:31:37;56.97;;;28.08;;
54865;SDS011;40754;52.094;4.328;2022-10-31T16:34:05;56.70;;;29.20;;
54865;SDS011;40754;52.094;4.328;2022-10-31T16:36:39;55.33;;;28.33;;
54865;SDS011;40754;52.094;4.328;2022-10-31T16:39:05;58.13;;;28.80;;
54865;SDS011;40754;52.094;4.328;2022-10-31T16:41:31;55.42;;;26.58;;
54865;SDS011;40754;52.094;4.328;2022-10-31T16:44:01;50.83;;;27.17;;
54865;SDS011;40754;52.094;4.328;2022-10-31T16:46:30;50.67;;;27.48;;
54865;SDS011;40754;52.094;4.328;2022-10-31T16:48:56;54.90;;;28.40;;
54865;SDS011;40754;52.094;4.328;2022-10-31T16:51:22;49.97;;;27.45;;
54865;SDS011;40754;52.094;4.328;2022-10-31T16:53:47;49.05;;;27.30;;
54865;SDS011;40754;52.094;4.328;2022-10-31T16:56:29;55.40;;;29.10;;
54865;SDS011;40754;52.094;4.328;2022-10-31T16:58:58;59.67;;;28.27;;
54865;SDS011;40754;52.094;4.328;2022-10-31T17:01:26;57.85;;;28.10;;
54865;SDS011;40754;52.094;4.328;2022-10-31T17:03:53;54.67;;;27.33;;
54865;SDS011;40754;52.094;4.328;2022-10-31T17:06:18;59.67;;;27.08;;
54865;SDS011;40754;52.094;4.328;2022-10-31T17:08:53;52.03;;;28.02;;
54865;SDS011;40754;52.094;4.328;2022-10-31T17:11:35;53.97;;;26.60;;
54865;SDS011;40754;52.094;4.328;2022-10-31T17:14:00;48.85;;;26.23;;
54865;SDS011;40754;52.094;4.328;2022-10-31T17:16:26;53.65;;;26.48;;
54865;SDS011;40754;52.094;4.328;2022-10-31T17:18:52;50.45;;;26.30;;
54865;SDS011;40754;52.094;4.328;2022-10-31T17:21:18;53.38;;;26.98;;